WetterOnline ( https://www.wetteronline.ch )

Wetter aktuell Nizza

Aktuelles Wetter: Nizza (27m)

6-stündlich | Neueste Meldungen
Ortszeit Temperatur Wetter
Sa, 06.03. 1:00 10.0° C leicht bewölkt
Fr, 05.03. 19:00 12.9° C wolkig
Fr, 05.03. 13:00 13.7° C leicht bewölkt
Fr, 05.03. 7:00 7.7° C leicht bewölkt
Fr, 05.03. 1:00 8.6° C fast wolkenlos
Do, 04.03. 19:00 12.4° C bewölkt
Do, 04.03. 13:00 12.7° C leicht bewölkt
Do, 04.03. 7:00 6.1° C fast wolkenlos
Ortszeit Temperatur Wetter
Sa, 06.03. 6:30 9° C bewölkt
Sa, 06.03. 6:00 9.2° C leicht bewölkt
Sa, 06.03. 5:30 9° C leicht bewölkt
Sa, 06.03. 5:00 9.0° C leicht bewölkt
Sa, 06.03. 4:30 9° C leicht bewölkt
Sa, 06.03. 4:00 9.3° C leicht bewölkt
Sa, 06.03. 3:30 9° C leicht bewölkt
Sa, 06.03. 3:00 9.2° C leicht bewölkt
Ortszeit Relative Feuchte Sichtweite
Sa, 06.03. 1:00 83% 15 km
Fr, 05.03. 19:00 77% 12 km
Fr, 05.03. 13:00 72% 15 km
Fr, 05.03. 7:00 77% 20 km
Fr, 05.03. 1:00 88% 10 km
Do, 04.03. 19:00 85% 12 km
Do, 04.03. 13:00 75% 30 km
Do, 04.03. 7:00 67% 30 km
Ortszeit Relative Feuchte Sichtweite
Sa, 06.03. 6:30 81% >10 km
Sa, 06.03. 6:00 78% 15 km
Sa, 06.03. 5:30 81% >10 km
Sa, 06.03. 5:00 81% 15 km
Sa, 06.03. 4:30 81% >10 km
Sa, 06.03. 4:00 82% 15 km
Sa, 06.03. 3:30 87% >10 km
Sa, 06.03. 3:00 84% 15 km
Ortszeit Niederschlagsmenge Niederschlagsart
Sa, 06.03. 1:00 0.0 l/m2 in 6 Std. -
Fr, 05.03. 19:00 0.0 l/m2 in 12 Std. -
Fr, 05.03. 13:00 0.0 l/m2 in 6 Std. -
Fr, 05.03. 7:00 0.0 l/m2 in 12 Std. -
Fr, 05.03. 1:00 0.0 l/m2 in 6 Std. -
Do, 04.03. 19:00 keine Meldung -
Do, 04.03. 13:00 keine Meldung -
Do, 04.03. 7:00 0.0 l/m2 in 12 Std. -
Ortszeit Niederschlagsmenge Niederschlagsart
Sa, 06.03. 6:30 keine Meldung -
Sa, 06.03. 6:00 0.0 l/m2 in 1 Std. -
Sa, 06.03. 5:30 keine Meldung -
Sa, 06.03. 5:00 0.0 l/m2 in 1 Std. -
Sa, 06.03. 4:30 keine Meldung -
Sa, 06.03. 4:00 keine Meldung -
Sa, 06.03. 3:30 keine Meldung -
Sa, 06.03. 3:00 0.0 l/m2 in 1 Std. -
Ortszeit Stärke Spitze Richtung
km/h Bft. km/h Grad Sektor
Sa, 06.03. 1:00 9 2 11 330° NW
Fr, 05.03. 19:00 13 3 22 90° O
Fr, 05.03. 13:00 6 1 11 130° SO
Fr, 05.03. 7:00 15 3 24 330° NW
Fr, 05.03. 1:00 11 2 13 330° NW
Do, 04.03. 19:00 11 2 15 50° NO
Do, 04.03. 13:00 13 3 17 180° S
Do, 04.03. 7:00 15 3 24 330° NW
Ortszeit Stärke Spitze Richtung
km/h Bft. km/h Grad Sektor
Sa, 06.03. 6:30 13 3 - 330° NW
Sa, 06.03. 6:00 11 2 19 330° NW
Sa, 06.03. 5:30 11 2 - 330° NW
Sa, 06.03. 5:00 15 3 19 330° NW
Sa, 06.03. 4:30 17 3 - 330° NW
Sa, 06.03. 4:00 11 2 17 330° NW
Sa, 06.03. 3:30 11 2 - 330° NW
Sa, 06.03. 3:00 11 2 15 320° NW
Ortszeit Untergrenze Bedeckung Gattung
total tief tief mittel hoch
Sa, 06.03. 1:00 3000 m 2/8 2/8 - Ac -
Fr, 05.03. 19:00 1500 m 6/8 5/8 Sc - Ci
Fr, 05.03. 13:00 1080 m 6/8 1/8 Sc - Ci
Fr, 05.03. 7:00 900 m 4/8 2/8 Sc - Ci
Fr, 05.03. 1:00 690 m 1/8 1/8 Sc - -
Do, 04.03. 19:00 480 m 7/8 7/8 Sc - -
Do, 04.03. 13:00 780 m 5/8 1/8 Sc - Ci
Do, 04.03. 7:00 360 m 2/8 1/8 St - Ci
Ortszeit Bedeckungsgrad in Achtel und Wolkenuntergrenze
Sa, 06.03. 6:30 5-7(990m)
Sa, 06.03. 6:00 4(990m)
Sa, 06.03. 5:30 3-4(780m)
Sa, 06.03. 5:00 3(780m)
Sa, 06.03. 4:30 3-4(780m)
Sa, 06.03. 4:00 4(780m)
Sa, 06.03. 3:30 3-4(780m)
Sa, 06.03. 3:00 3(780m)
Ortszeit Luftdruck NN (hPa) Tendenz (hPa in 3 Std.)
Sa, 06.03. 1:00 1020 + 1,1
Fr, 05.03. 19:00 1017 + 1,1
Fr, 05.03. 13:00 1016 - 0,1
Fr, 05.03. 7:00 1016 - 0,5
Fr, 05.03. 1:00 1018 - 0,6
Do, 04.03. 19:00 1020 - 1,2
Do, 04.03. 13:00 1024 - 1,8
Do, 04.03. 7:00 1026 - 0,6
Ortszeit Luftdruck NN (hPa) Tendenz (hPa in 3 Std.)
Sa, 06.03. 6:30 1022 keine Meldung
Sa, 06.03. 6:00 1022 + 1,3
Sa, 06.03. 5:30 1021 keine Meldung
Sa, 06.03. 5:00 1021 + 0,6
Sa, 06.03. 4:30 1020 keine Meldung
Sa, 06.03. 4:00 1021 + 0,5
Sa, 06.03. 3:30 1020 keine Meldung
Sa, 06.03. 3:00 1021 + 0,7
Ortszeit Schneehöhe (cm)
Sa, 06.03. 1:00 -
Fr, 05.03. 19:00 -
Fr, 05.03. 13:00 -
Fr, 05.03. 7:00 -
Fr, 05.03. 1:00 -
Do, 04.03. 19:00 -
Do, 04.03. 13:00 -
Do, 04.03. 7:00 -
Ortszeit Schneehöhe (cm)
Sa, 06.03. 6:30 -
Sa, 06.03. 6:00 -
Sa, 06.03. 5:30 -
Sa, 06.03. 5:00 -
Sa, 06.03. 4:30 -
Sa, 06.03. 4:00 -
Sa, 06.03. 3:30 -
Sa, 06.03. 3:00 -
Link zu dieser Seite / Seite empfehlen

Das Wetter in ...